weather.gov     
National Weather Service

Terminal Aerodrome Forecast
NWS Homepage
This page is being discontinued on March 12, 2014.
The same data is available at this site. Please update your bookmarks.
Thank you, and we apologize for the inconvenience.
Please send an email to SR-SRH.Webmaster@noaa.gov with any concerns.


Current Version
Previous Version:    01  02  03  04  05  06  07  08  09  10  11  12  13  14  15  16  17  18  19  20  21  22  23  24  25  26  27  28  29  30  
   31  
[Printable]
644
FTUS45 KSLC 230833 AAA
TAFLGU
TAF AMD
KLGU 230833Z 2309/2406 35008KT P6SM -RA FEW030 BKN050
     FM231200 33008KT P6SM VCSH SCT050 BKN080
     FM231600 27010KT P6SM SCT060 BKN120
     FM240300 VRB04KT P6SM SCT060 SCT120=




644
FTUS45 KSLC 230833 AAA
TAFLGU
TAF AMD
KLGU 230833Z 2309/2406 35008KT P6SM -RA FEW030 BKN050
     FM231200 33008KT P6SM VCSH SCT050 BKN080
     FM231600 27010KT P6SM SCT060 BKN120
     FM240300 VRB04KT P6SM SCT060 SCT120=


U.S. Dept. of Commerce
NOAA National Weather Service
1325 East West Highway
Silver Spring, MD 20910
E-mail: w-nws.webmaster@noaa.gov
Page last modified: May 16, 2007
NATIONAL WEATHER SERVICE: for Safety, for Work, for Fun - FOR LIFE